sensor_id;sensor_type;location;lat;lon;timestamp;pressure;altitude;pressure_sealevel;temperature;humidity
829;BME280;396;52.558;13.188;2023-03-04T00:00:51;101299.19;;;2.64;100.00
829;BME280;396;52.558;13.188;2023-03-04T00:03:17;101305.16;;;2.66;99.82
829;BME280;396;52.558;13.188;2023-03-04T00:05:44;101311.06;;;2.68;99.55
829;BME280;396;52.558;13.188;2023-03-04T00:08:11;101313.25;;;2.60;100.00
829;BME280;396;52.558;13.188;2023-03-04T00:10:38;101307.59;;;2.68;100.00
829;BME280;396;52.558;13.188;2023-03-04T00:13:06;101303.16;;;2.73;100.00
829;BME280;396;52.558;13.188;2023-03-04T00:15:32;101302.34;;;2.73;100.00
829;BME280;396;52.558;13.188;2023-03-04T00:17:59;101294.81;;;2.82;99.85
829;BME280;396;52.558;13.188;2023-03-04T00:20:25;101297.03;;;2.85;99.43
829;BME280;396;52.558;13.188;2023-03-04T00:22:52;101296.22;;;2.84;99.56
829;BME280;396;52.558;13.188;2023-03-04T00:25:19;101285.97;;;2.93;99.43
829;BME280;396;52.558;13.188;2023-03-04T00:27:45;101288.28;;;3.01;98.59
829;BME280;396;52.558;13.188;2023-03-04T00:30:14;101295.03;;;2.92;98.70
829;BME280;396;52.558;13.188;2023-03-04T00:32:41;101286.09;;;2.86;99.77
829;BME280;396;52.558;13.188;2023-03-04T00:35:07;101286.78;;;2.93;98.96
829;BME280;396;52.558;13.188;2023-03-04T00:37:34;101291.56;;;3.03;98.65
829;BME280;396;52.558;13.188;2023-03-04T00:40:01;101286.56;;;3.07;98.44
829;BME280;396;52.558;13.188;2023-03-04T00:42:27;101285.97;;;3.16;98.00
829;BME280;396;52.558;13.188;2023-03-04T00:44:54;101278.50;;;3.18;97.83
829;BME280;396;52.558;13.188;2023-03-04T00:47:22;101282.22;;;3.17;97.78
829;BME280;396;52.558;13.188;2023-03-04T00:49:48;101276.16;;;3.22;97.49
829;BME280;396;52.558;13.188;2023-03-04T00:52:15;101282.22;;;3.29;96.97
829;BME280;396;52.558;13.188;2023-03-04T00:54:41;101281.88;;;3.37;96.68
829;BME280;396;52.558;13.188;2023-03-04T00:57:08;101277.06;;;3.39;96.59
829;BME280;396;52.558;13.188;2023-03-04T00:59:34;101278.81;;;3.45;96.28
829;BME280;396;52.558;13.188;2023-03-04T01:02:01;101276.16;;;3.45;96.07
829;BME280;396;52.558;13.188;2023-03-04T01:04:29;101265.84;;;3.54;95.55
829;BME280;396;52.558;13.188;2023-03-04T01:06:55;101263.78;;;3.56;95.38
829;BME280;396;52.558;13.188;2023-03-04T01:09:22;101267.25;;;3.57;95.47
829;BME280;396;52.558;13.188;2023-03-04T01:11:51;101268.41;;;3.61;95.20
829;BME280;396;52.558;13.188;2023-03-04T01:14:17;101261.81;;;3.51;95.32
829;BME280;396;52.558;13.188;2023-03-04T01:16:44;101258.22;;;3.46;96.19
829;BME280;396;52.558;13.188;2023-03-04T01:19:11;101260.19;;;3.50;95.97
829;BME280;396;52.558;13.188;2023-03-04T01:21:38;101260.50;;;3.54;96.09
829;BME280;396;52.558;13.188;2023-03-04T01:24:05;101255.47;;;3.58;95.87
829;BME280;396;52.558;13.188;2023-03-04T01:26:32;101254.78;;;3.62;95.54
829;BME280;396;52.558;13.188;2023-03-04T01:28:59;101256.63;;;3.62;95.48
829;BME280;396;52.558;13.188;2023-03-04T01:31:25;101241.09;;;3.75;95.01
829;BME280;396;52.558;13.188;2023-03-04T01:33:52;101236.38;;;3.66;95.15
829;BME280;396;52.558;13.188;2023-03-04T01:36:19;101231.09;;;3.71;95.14
829;BME280;396;52.558;13.188;2023-03-04T01:38:46;101226.56;;;3.71;95.48
829;BME280;396;52.558;13.188;2023-03-04T01:41:14;101233.41;;;3.79;95.08
829;BME280;396;52.558;13.188;2023-03-04T01:43:42;101229.44;;;3.82;94.93
829;BME280;396;52.558;13.188;2023-03-04T01:46:10;101218.72;;;3.82;95.31
829;BME280;396;52.558;13.188;2023-03-04T01:48:40;101227.75;;;3.92;94.58
829;BME280;396;52.558;13.188;2023-03-04T01:51:11;101216.78;;;3.94;94.37
829;BME280;396;52.558;13.188;2023-03-04T01:53:38;101215.03;;;3.99;94.50
829;BME280;396;52.558;13.188;2023-03-04T01:56:15;101207.78;;;4.00;94.50
829;BME280;396;52.558;13.188;2023-03-04T01:58:41;101213.78;;;4.07;94.14
829;BME280;396;52.558;13.188;2023-03-04T02:01:09;101201.38;;;4.01;94.52
829;BME280;396;52.558;13.188;2023-03-04T02:03:36;101206.25;;;4.04;94.59
829;BME280;396;52.558;13.188;2023-03-04T02:06:03;101204.72;;;4.08;94.66
829;BME280;396;52.558;13.188;2023-03-04T02:08:30;101203.66;;;4.09;94.82
829;BME280;396;52.558;13.188;2023-03-04T02:10:57;101207.56;;;4.18;94.46
829;BME280;396;52.558;13.188;2023-03-04T02:13:25;101203.59;;;4.21;94.72
829;BME280;396;52.558;13.188;2023-03-04T02:15:51;101193.69;;;4.21;94.69
829;BME280;396;52.558;13.188;2023-03-04T02:18:20;101191.56;;;4.23;94.87
829;BME280;396;52.558;13.188;2023-03-04T02:20:53;101194.72;;;4.20;94.97
829;BME280;396;52.558;13.188;2023-03-04T02:23:25;101191.63;;;4.28;94.81
829;BME280;396;52.558;13.188;2023-03-04T02:26:16;101178.88;;;4.36;94.41
829;BME280;396;52.558;13.188;2023-03-04T02:28:44;101185.38;;;4.40;94.43
829;BME280;396;52.558;13.188;2023-03-04T02:31:22;101178.16;;;4.40;94.37
829;BME280;396;52.558;13.188;2023-03-04T02:33:50;101176.84;;;4.43;94.48
829;BME280;396;52.558;13.188;2023-03-04T02:36:17;101172.13;;;4.50;93.81
829;BME280;396;52.558;13.188;2023-03-04T02:38:43;101168.88;;;4.48;93.88
829;BME280;396;52.558;13.188;2023-03-04T02:41:11;101172.28;;;4.43;94.51
829;BME280;396;52.558;13.188;2023-03-04T02:43:40;101168.81;;;4.43;94.42
829;BME280;396;52.558;13.188;2023-03-04T02:46:09;101159.50;;;4.50;94.14
829;BME280;396;52.558;13.188;2023-03-04T02:48:37;101154.88;;;4.46;94.57
829;BME280;396;52.558;13.188;2023-03-04T02:51:04;101161.31;;;4.45;95.07
829;BME280;396;52.558;13.188;2023-03-04T02:53:31;101153.34;;;4.50;94.94
829;BME280;396;52.558;13.188;2023-03-04T02:55:58;101157.41;;;4.52;94.63
829;BME280;396;52.558;13.188;2023-03-04T02:58:24;101152.91;;;4.58;94.16
829;BME280;396;52.558;13.188;2023-03-04T03:00:52;101160.41;;;4.56;94.58
829;BME280;396;52.558;13.188;2023-03-04T03:03:19;101149.97;;;4.60;94.56
829;BME280;396;52.558;13.188;2023-03-04T03:05:45;101160.47;;;4.61;94.60
829;BME280;396;52.558;13.188;2023-03-04T03:08:12;101151.38;;;4.62;94.75
829;BME280;396;52.558;13.188;2023-03-04T03:10:39;101148.69;;;4.62;94.67
829;BME280;396;52.558;13.188;2023-03-04T03:13:05;101154.84;;;4.63;94.99
829;BME280;396;52.558;13.188;2023-03-04T03:15:32;101152.38;;;4.56;95.53
829;BME280;396;52.558;13.188;2023-03-04T03:18:00;101152.38;;;4.56;95.53
829;BME280;396;52.558;13.188;2023-03-04T03:20:26;101142.66;;;4.55;95.92
829;BME280;396;52.558;13.188;2023-03-04T03:22:53;101141.63;;;4.56;96.19
829;BME280;396;52.558;13.188;2023-03-04T03:25:19;101137.97;;;4.62;96.11
829;BME280;396;52.558;13.188;2023-03-04T03:27:46;101134.69;;;4.60;96.08
829;BME280;396;52.558;13.188;2023-03-04T03:30:14;101134.22;;;4.63;96.12
829;BME280;396;52.558;13.188;2023-03-04T03:32:40;101122.34;;;4.59;96.87
829;BME280;396;52.558;13.188;2023-03-04T03:35:09;101131.94;;;4.55;97.15
829;BME280;396;52.558;13.188;2023-03-04T03:37:35;101115.38;;;4.58;96.94
829;BME280;396;52.558;13.188;2023-03-04T03:40:02;101115.16;;;4.65;96.94
829;BME280;396;52.558;13.188;2023-03-04T03:42:29;101126.75;;;4.65;97.06
829;BME280;396;52.558;13.188;2023-03-04T03:44:56;101118.50;;;4.72;96.53
829;BME280;396;52.558;13.188;2023-03-04T03:47:23;101116.88;;;4.71;96.64
829;BME280;396;52.558;13.188;2023-03-04T03:49:49;101114.50;;;4.74;96.75
829;BME280;396;52.558;13.188;2023-03-04T03:52:17;101124.13;;;4.70;97.16
829;BME280;396;52.558;13.188;2023-03-04T03:54:44;101116.00;;;4.65;97.63
829;BME280;396;52.558;13.188;2023-03-04T03:57:10;101106.31;;;4.64;97.64
829;BME280;396;52.558;13.188;2023-03-04T03:59:37;101112.97;;;4.78;97.25
829;BME280;396;52.558;13.188;2023-03-04T04:02:03;101111.69;;;4.86;96.56
829;BME280;396;52.558;13.188;2023-03-04T04:04:30;101110.38;;;4.89;96.31
829;BME280;396;52.558;13.188;2023-03-04T04:06:58;101104.97;;;4.84;96.95
829;BME280;396;52.558;13.188;2023-03-04T04:09:26;101103.91;;;4.85;96.78
829;BME280;396;52.558;13.188;2023-03-04T04:11:52;101109.91;;;4.92;96.28
829;BME280;396;52.558;13.188;2023-03-04T04:14:19;101103.78;;;4.96;96.06
829;BME280;396;52.558;13.188;2023-03-04T04:16:46;101106.16;;;4.93;96.19
829;BME280;396;52.558;13.188;2023-03-04T04:19:16;101100.28;;;4.96;96.51
829;BME280;396;52.558;13.188;2023-03-04T04:21:43;101097.41;;;5.02;95.97
829;BME280;396;52.558;13.188;2023-03-04T04:24:10;101098.19;;;5.03;95.94
829;BME280;396;52.558;13.188;2023-03-04T04:26:38;101106.25;;;5.03;95.93
829;BME280;396;52.558;13.188;2023-03-04T04:29:05;101101.19;;;5.06;95.78
829;BME280;396;52.558;13.188;2023-03-04T04:31:32;101096.16;;;5.10;95.82
829;BME280;396;52.558;13.188;2023-03-04T04:33:58;101097.44;;;5.07;96.03
829;BME280;396;52.558;13.188;2023-03-04T04:36:25;101093.78;;;5.14;95.88
829;BME280;396;52.558;13.188;2023-03-04T04:38:52;101084.88;;;5.13;95.68
829;BME280;396;52.558;13.188;2023-03-04T04:41:20;101089.75;;;5.16;95.56
829;BME280;396;52.558;13.188;2023-03-04T04:43:48;101088.69;;;5.17;95.47
829;BME280;396;52.558;13.188;2023-03-04T04:46:15;101082.50;;;5.17;95.47
829;BME280;396;52.558;13.188;2023-03-04T04:48:42;101077.72;;;5.19;95.32
829;BME280;396;52.558;13.188;2023-03-04T04:51:09;101083.25;;;5.12;95.66
829;BME280;396;52.558;13.188;2023-03-04T04:53:36;101078.53;;;5.19;95.49
829;BME280;396;52.558;13.188;2023-03-04T04:56:08;101076.91;;;5.18;95.41
829;BME280;396;52.558;13.188;2023-03-04T04:58:35;101071.53;;;5.18;95.14
829;BME280;396;52.558;13.188;2023-03-04T05:01:03;101079.06;;;5.21;94.94
829;BME280;396;52.558;13.188;2023-03-04T05:03:31;101076.06;;;5.18;95.56
829;BME280;396;52.558;13.188;2023-03-04T05:05:57;101073.19;;;5.24;95.00
829;BME280;396;52.558;13.188;2023-03-04T05:08:24;101073.47;;;5.23;95.07
829;BME280;396;52.558;13.188;2023-03-04T05:10:51;101072.16;;;5.30;94.95
829;BME280;396;52.558;13.188;2023-03-04T05:13:18;101072.94;;;5.26;95.32
829;BME280;396;52.558;13.188;2023-03-04T05:15:44;101071.75;;;5.17;95.70
829;BME280;396;52.558;13.188;2023-03-04T05:18:12;101074.75;;;5.20;95.45
829;BME280;396;52.558;13.188;2023-03-04T05:20:39;101076.19;;;5.28;95.17
829;BME280;396;52.558;13.188;2023-03-04T05:23:05;101074.34;;;5.34;94.94
829;BME280;396;52.558;13.188;2023-03-04T05:25:32;101076.50;;;5.31;95.20
829;BME280;396;52.558;13.188;2023-03-04T05:27:59;101074.34;;;5.34;95.00
829;BME280;396;52.558;13.188;2023-03-04T05:30:26;101076.50;;;5.31;95.23
829;BME280;396;52.558;13.188;2023-03-04T05:32:53;101073.28;;;5.35;95.21
829;BME280;396;52.558;13.188;2023-03-04T05:35:20;101071.41;;;5.35;95.17
829;BME280;396;52.558;13.188;2023-03-04T05:37:47;101071.13;;;5.31;95.44
829;BME280;396;52.558;13.188;2023-03-04T05:40:14;101070.50;;;5.24;95.80
829;BME280;396;52.558;13.188;2023-03-04T05:42:40;101061.59;;;5.19;96.45
829;BME280;396;52.558;13.188;2023-03-04T05:45:07;101072.03;;;5.15;97.18
829;BME280;396;52.558;13.188;2023-03-04T05:47:34;101070.97;;;5.16;97.30
829;BME280;396;52.558;13.188;2023-03-04T05:50:01;101074.56;;;5.27;96.92
829;BME280;396;52.558;13.188;2023-03-04T05:52:28;101069.72;;;5.24;96.91
829;BME280;396;52.558;13.188;2023-03-04T05:54:55;101057.59;;;5.21;97.11
829;BME280;396;52.558;13.188;2023-03-04T05:57:22;101058.66;;;5.20;97.42
829;BME280;396;52.558;13.188;2023-03-04T05:59:48;101060.72;;;5.13;98.20
829;BME280;396;52.558;13.188;2023-03-04T06:02:15;101059.69;;;5.14;98.48
829;BME280;396;52.558;13.188;2023-03-04T06:04:41;101057.97;;;5.08;99.11
829;BME280;396;52.558;13.188;2023-03-04T06:07:08;101071.53;;;5.18;98.93
829;BME280;396;52.558;13.188;2023-03-04T06:09:36;101067.28;;;5.22;98.83
829;BME280;396;52.558;13.188;2023-03-04T06:12:03;101070.47;;;5.19;98.99
829;BME280;396;52.558;13.188;2023-03-04T06:14:30;101069.97;;;5.22;99.12
829;BME280;396;52.558;13.188;2023-03-04T06:16:56;101065.09;;;5.19;99.31
829;BME280;396;52.558;13.188;2023-03-04T06:19:23;101065.63;;;5.21;99.51
829;BME280;396;52.558;13.188;2023-03-04T06:21:50;101074.75;;;5.20;100.00
829;BME280;396;52.558;13.188;2023-03-04T06:24:16;101069.72;;;5.24;100.00
829;BME280;396;52.558;13.188;2023-03-04T06:26:44;101067.28;;;5.22;100.00
829;BME280;396;52.558;13.188;2023-03-04T06:29:11;101063.53;;;5.23;100.00
829;BME280;396;52.558;13.188;2023-03-04T06:31:37;101056.53;;;5.22;100.00
829;BME280;396;52.558;13.188;2023-03-04T06:34:06;101068.63;;;5.25;100.00
829;BME280;396;52.558;13.188;2023-03-04T06:36:32;101071.00;;;5.21;100.00
829;BME280;396;52.558;13.188;2023-03-04T06:39:01;101065.09;;;5.19;100.00
829;BME280;396;52.558;13.188;2023-03-04T06:41:27;101067.78;;;5.19;100.00
829;BME280;396;52.558;13.188;2023-03-04T06:43:55;101070.78;;;5.23;100.00
829;BME280;396;52.558;13.188;2023-03-04T06:46:22;101068.28;;;5.16;100.00
829;BME280;396;52.558;13.188;2023-03-04T06:48:48;101076.38;;;5.21;100.00
829;BME280;396;52.558;13.188;2023-03-04T06:51:15;101073.97;;;5.20;100.00
829;BME280;396;52.558;13.188;2023-03-04T06:53:42;101073.97;;;5.20;100.00
829;BME280;396;52.558;13.188;2023-03-04T06:56:10;101071.06;;;5.26;100.00
829;BME280;396;52.558;13.188;2023-03-04T06:58:37;101077.53;;;5.30;100.00
829;BME280;396;52.558;13.188;2023-03-04T07:01:13;101082.41;;;5.34;100.00
829;BME280;396;52.558;13.188;2023-03-04T07:03:41;101079.53;;;5.40;100.00
829;BME280;396;52.558;13.188;2023-03-04T07:06:09;101101.56;;;5.42;100.00
829;BME280;396;52.558;13.188;2023-03-04T07:08:36;101077.91;;;5.39;100.00
829;BME280;396;52.558;13.188;2023-03-04T07:11:03;101083.72;;;5.31;100.00
829;BME280;396;52.558;13.188;2023-03-04T07:13:29;101090.56;;;5.44;100.00
829;BME280;396;52.558;13.188;2023-03-04T07:15:56;101091.13;;;5.46;100.00
829;BME280;396;52.558;13.188;2023-03-04T07:18:24;101091.94;;;5.46;100.00
829;BME280;396;52.558;13.188;2023-03-04T07:20:51;101091.09;;;5.41;100.00
829;BME280;396;52.558;13.188;2023-03-04T07:23:18;101089.41;;;5.35;100.00
829;BME280;396;52.558;13.188;2023-03-04T07:25:44;101081.34;;;5.35;100.00
829;BME280;396;52.558;13.188;2023-03-04T07:28:11;101088.91;;;5.38;100.00
829;BME280;396;52.558;13.188;2023-03-04T07:30:38;101092.31;;;5.28;100.00
829;BME280;396;52.558;13.188;2023-03-04T07:33:04;101084.78;;;5.30;100.00
829;BME280;396;52.558;13.188;2023-03-04T07:35:32;101076.78;;;5.35;100.00
829;BME280;396;52.558;13.188;2023-03-04T07:37:59;101083.72;;;5.31;100.00
829;BME280;396;52.558;13.188;2023-03-04T07:40:26;101078.63;;;5.29;100.00
829;BME280;396;52.558;13.188;2023-03-04T07:42:53;101086.22;;;5.38;100.00
829;BME280;396;52.558;13.188;2023-03-04T07:45:21;101084.59;;;5.37;100.00
829;BME280;396;52.558;13.188;2023-03-04T07:47:48;101083.84;;;5.41;100.00
829;BME280;396;52.558;13.188;2023-03-04T07:50:15;101087.38;;;5.47;100.00
829;BME280;396;52.558;13.188;2023-03-04T07:52:45;101072.88;;;5.48;100.00
829;BME280;396;52.558;13.188;2023-03-04T07:55:13;101082.50;;;5.44;100.00
829;BME280;396;52.558;13.188;2023-03-04T07:57:40;101087.38;;;5.47;100.00
829;BME280;396;52.558;13.188;2023-03-04T08:00:09;101081.34;;;5.35;100.00
829;BME280;396;52.558;13.188;2023-03-04T08:02:36;101084.56;;;5.31;100.00
829;BME280;396;52.558;13.188;2023-03-04T08:05:04;101079.22;;;5.37;100.00
829;BME280;396;52.558;13.188;2023-03-04T08:07:30;101076.53;;;5.37;100.00
829;BME280;396;52.558;13.188;2023-03-04T08:09:59;101083.84;;;5.41;100.00
829;BME280;396;52.558;13.188;2023-03-04T08:12:26;101081.97;;;5.42;100.00
829;BME280;396;52.558;13.188;2023-03-04T08:14:54;101072.56;;;5.44;100.00
829;BME280;396;52.558;13.188;2023-03-04T08:17:20;101075.25;;;5.44;100.00
829;BME280;396;52.558;13.188;2023-03-04T08:19:47;101084.19;;;5.50;100.00
829;BME280;396;52.558;13.188;2023-03-04T08:22:13;101072.88;;;5.48;100.00
829;BME280;396;52.558;13.188;2023-03-04T08:24:40;101082.34;;;5.55;100.00
829;BME280;396;52.558;13.188;2023-03-04T08:27:08;101077.06;;;5.66;100.00
829;BME280;396;52.558;13.188;2023-03-04T08:29:35;101069.47;;;5.57;99.01
829;BME280;396;52.558;13.188;2023-03-04T08:32:01;101070.66;;;5.67;98.13
829;BME280;396;52.558;13.188;2023-03-04T08:34:28;101079.59;;;5.77;98.15
829;BME280;396;52.558;13.188;2023-03-04T08:36:55;101070.63;;;5.94;96.71
829;BME280;396;52.558;13.188;2023-03-04T08:39:22;101062.00;;;5.97;96.27
829;BME280;396;52.558;13.188;2023-03-04T08:41:49;101069.53;;;5.95;97.00
829;BME280;396;52.558;13.188;2023-03-04T08:44:16;101074.94;;;6.00;97.70
829;BME280;396;52.558;13.188;2023-03-04T08:46:43;101072.88;;;6.12;97.65
829;BME280;396;52.558;13.188;2023-03-04T08:49:11;101069.66;;;6.15;97.65
829;BME280;396;52.558;13.188;2023-03-04T08:51:38;101063.22;;;6.11;98.38
829;BME280;396;52.558;13.188;2023-03-04T08:54:05;101062.66;;;6.14;98.14
829;BME280;396;52.558;13.188;2023-03-04T08:56:32;101055.25;;;6.31;97.58
829;BME280;396;52.558;13.188;2023-03-04T08:58:59;101061.44;;;6.32;97.28
829;BME280;396;52.558;13.188;2023-03-04T09:01:27;101062.22;;;6.32;97.23
829;BME280;396;52.558;13.188;2023-03-04T09:03:53;101065.50;;;6.40;96.64
829;BME280;396;52.558;13.188;2023-03-04T09:06:20;101057.75;;;6.48;95.80
829;BME280;396;52.558;13.188;2023-03-04T09:08:47;101049.41;;;6.50;95.26
829;BME280;396;52.558;13.188;2023-03-04T09:11:14;101047.28;;;6.52;94.99
829;BME280;396;52.558;13.188;2023-03-04T09:13:41;101053.50;;;6.57;94.44
829;BME280;396;52.558;13.188;2023-03-04T09:16:08;101047.84;;;6.59;95.17
829;BME280;396;52.558;13.188;2023-03-04T09:18:38;101052.19;;;6.65;92.66
829;BME280;396;52.558;13.188;2023-03-04T09:21:05;101059.75;;;6.73;92.31
829;BME280;396;52.558;13.188;2023-03-04T09:23:32;101065.63;;;6.60;91.54
829;BME280;396;52.558;13.188;2023-03-04T09:25:59;101061.59;;;6.68;91.90
829;BME280;396;52.558;13.188;2023-03-04T09:28:26;101063.44;;;6.52;90.41
829;BME280;396;52.558;13.188;2023-03-04T09:30:52;101061.53;;;6.47;90.06
829;BME280;396;52.558;13.188;2023-03-04T09:33:19;101061.28;;;6.59;89.43
829;BME280;396;52.558;13.188;2023-03-04T09:35:47;101062.94;;;6.60;89.75
829;BME280;396;52.558;13.188;2023-03-04T09:38:14;101066.97;;;6.63;89.99
829;BME280;396;52.558;13.188;2023-03-04T09:40:42;101071.88;;;6.76;88.06
829;BME280;396;52.558;13.188;2023-03-04T09:43:16;101073.22;;;6.78;88.80
829;BME280;396;52.558;13.188;2023-03-04T09:45:47;101070.78;;;6.77;88.26
829;BME280;396;52.558;13.188;2023-03-04T09:48:20;101076.47;;;6.80;87.65
829;BME280;396;52.558;13.188;2023-03-04T09:51:01;101072.69;;;6.81;86.74
829;BME280;396;52.558;13.188;2023-03-04T09:53:37;101067.06;;;6.83;86.26
829;BME280;396;52.558;13.188;2023-03-04T09:56:06;101068.38;;;6.75;85.26
829;BME280;396;52.558;13.188;2023-03-04T09:58:43;101065.41;;;6.77;83.29
829;BME280;396;52.558;13.188;2023-03-04T10:01:19;101071.88;;;6.76;82.52
829;BME280;396;52.558;13.188;2023-03-04T10:03:48;101069.69;;;6.73;82.12
829;BME280;396;52.558;13.188;2023-03-04T10:06:19;101064.66;;;6.87;82.09
829;BME280;396;52.558;13.188;2023-03-04T10:08:51;101072.16;;;6.79;81.73
829;BME280;396;52.558;13.188;2023-03-04T10:11:24;101071.66;;;6.88;81.15
829;BME280;396;52.558;13.188;2023-03-04T10:14:03;101070.84;;;6.92;80.73
829;BME280;396;52.558;13.188;2023-03-04T10:16:37;101057.69;;;6.96;76.54
829;BME280;396;52.558;13.188;2023-03-04T10:19:20;101069.78;;;7.03;75.88
829;BME280;396;52.558;13.188;2023-03-04T10:21:50;101076.25;;;6.92;76.17
829;BME280;396;52.558;13.188;2023-03-04T10:24:19;101078.94;;;6.97;74.87
829;BME280;396;52.558;13.188;2023-03-04T10:26:50;101073.28;;;6.99;75.57
829;BME280;396;52.558;13.188;2023-03-04T10:29:20;101077.88;;;7.03;74.60
829;BME280;396;52.558;13.188;2023-03-04T10:31:48;101075.75;;;7.11;72.87
829;BME280;396;52.558;13.188;2023-03-04T10:34:16;101075.47;;;7.12;72.90
829;BME280;396;52.558;13.188;2023-03-04T10:36:52;101071.47;;;7.20;73.98
829;BME280;396;52.558;13.188;2023-03-04T10:39:24;101078.22;;;7.22;71.48
829;BME280;396;52.558;13.188;2023-03-04T10:41:57;101073.63;;;7.23;71.62
829;BME280;396;52.558;13.188;2023-03-04T10:44:25;101075.53;;;7.27;70.06
829;BME280;396;52.558;13.188;2023-03-04T10:46:53;101070.66;;;7.14;70.97
829;BME280;396;52.558;13.188;2023-03-04T10:49:20;101070.66;;;7.24;71.73
829;BME280;396;52.558;13.188;2023-03-04T10:51:52;101074.72;;;7.32;72.15
829;BME280;396;52.558;13.188;2023-03-04T10:54:24;101073.94;;;7.37;70.98
829;BME280;396;52.558;13.188;2023-03-04T10:56:57;101077.72;;;7.46;70.14
829;BME280;396;52.558;13.188;2023-03-04T10:59:32;101074.44;;;7.33;70.11
829;BME280;396;52.558;13.188;2023-03-04T11:02:00;101072.03;;;7.27;70.34
829;BME280;396;52.558;13.188;2023-03-04T11:04:32;101080.59;;;7.08;71.35
829;BME280;396;52.558;13.188;2023-03-04T11:07:01;101074.66;;;7.06;72.66
829;BME280;396;52.558;13.188;2023-03-04T11:09:28;101078.97;;;7.02;73.20
829;BME280;396;52.558;13.188;2023-03-04T11:11:58;101080.34;;;7.10;72.68
829;BME280;396;52.558;13.188;2023-03-04T11:14:27;101085.44;;;7.12;70.60
829;BME280;396;52.558;13.188;2023-03-04T11:16:58;101080.91;;;7.17;70.32
829;BME280;396;52.558;13.188;2023-03-04T11:19:29;101094.34;;;7.12;69.93
829;BME280;396;52.558;13.188;2023-03-04T11:21:57;101089.78;;;7.18;69.03
829;BME280;396;52.558;13.188;2023-03-04T11:24:27;101083.03;;;7.20;69.21
829;BME280;396;52.558;13.188;2023-03-04T11:27:00;101088.97;;;7.17;69.34
829;BME280;396;52.558;13.188;2023-03-04T11:29:31;101074.69;;;7.17;68.31
829;BME280;396;52.558;13.188;2023-03-04T11:32:04;101080.63;;;7.24;67.92
829;BME280;396;52.558;13.188;2023-03-04T11:34:37;101087.09;;;7.28;68.53
829;BME280;396;52.558;13.188;2023-03-04T11:37:09;101081.72;;;7.28;67.31
829;BME280;396;52.558;13.188;2023-03-04T11:39:41;101089.53;;;7.29;68.28
829;BME280;396;52.558;13.188;2023-03-04T11:42:23;101096.56;;;7.41;67.20
829;BME280;396;52.558;13.188;2023-03-04T11:44:53;101087.41;;;7.31;66.99
829;BME280;396;52.558;13.188;2023-03-04T11:47:44;101090.63;;;7.33;66.74
829;BME280;396;52.558;13.188;2023-03-04T11:50:28;101103.84;;;7.35;66.04
829;BME280;396;52.558;13.188;2023-03-04T11:53:13;101081.44;;;7.24;64.68
829;BME280;396;52.558;13.188;2023-03-04T11:55:47;101088.72;;;7.34;64.36
829;BME280;396;52.558;13.188;2023-03-04T11:58:31;101092.78;;;7.47;63.44
829;BME280;396;52.558;13.188;2023-03-04T12:01:07;101081.50;;;7.50;63.35
829;BME280;396;52.558;13.188;2023-03-04T12:04:05;101082.00;;;7.47;64.04
829;BME280;396;52.558;13.188;2023-03-04T12:06:47;101086.31;;;7.38;63.98
829;BME280;396;52.558;13.188;2023-03-04T12:09:28;101089.28;;;7.31;64.19
829;BME280;396;52.558;13.188;2023-03-04T12:12:10;101077.69;;;7.36;65.12
829;BME280;396;52.558;13.188;2023-03-04T12:14:43;101080.94;;;7.43;64.15
829;BME280;396;52.558;13.188;2023-03-04T12:17:42;101086.59;;;7.36;65.29
829;BME280;396;52.558;13.188;2023-03-04T12:20:22;101092.53;;;7.48;64.68
829;BME280;396;52.558;13.188;2023-03-04T12:22:57;101084.97;;;7.35;65.72
829;BME280;396;52.558;13.188;2023-03-04T12:25:35;101087.41;;;7.31;65.50
829;BME280;396;52.558;13.188;2023-03-04T12:28:22;101081.41;;;7.14;64.98
829;BME280;396;52.558;13.188;2023-03-04T12:31:00;101083.03;;;7.15;64.21
829;BME280;396;52.558;13.188;2023-03-04T12:33:37;101086.53;;;7.16;64.96
829;BME280;396;52.558;13.188;2023-03-04T12:36:14;101087.13;;;7.38;63.76
829;BME280;396;52.558;13.188;2023-03-04T12:38:52;101075.00;;;7.36;63.99
829;BME280;396;52.558;13.188;2023-03-04T12:41:40;101075.53;;;7.38;63.97
829;BME280;396;52.558;13.188;2023-03-04T12:44:13;101076.03;;;7.24;64.09
829;BME280;396;52.558;13.188;2023-03-04T12:46:59;101077.13;;;7.28;64.16
829;BME280;396;52.558;13.188;2023-03-04T12:49:57;101073.88;;;7.21;64.36
829;BME280;396;52.558;13.188;2023-03-04T12:52:37;101076.03;;;7.24;64.23
829;BME280;396;52.558;13.188;2023-03-04T12:55:09;101078.75;;;7.19;65.25
829;BME280;396;52.558;13.188;2023-03-04T12:57:36;101085.22;;;7.33;64.90
829;BME280;396;52.558;13.188;2023-03-04T13:00:19;101079.59;;;7.50;63.57
829;BME280;396;52.558;13.188;2023-03-04T13:02:55;101077.97;;;7.59;62.46
829;BME280;396;52.558;13.188;2023-03-04T13:05:35;101080.41;;;7.41;64.26
829;BME280;396;52.558;13.188;2023-03-04T13:08:12;101070.13;;;7.27;64.01
829;BME280;396;52.558;13.188;2023-03-04T13:10:44;101077.16;;;7.39;63.41
829;BME280;396;52.558;13.188;2023-03-04T13:13:32;101072.03;;;7.47;62.46
829;BME280;396;52.558;13.188;2023-03-04T13:16:03;101075.53;;;7.27;63.40
829;BME280;396;52.558;13.188;2023-03-04T13:18:32;101081.13;;;7.05;64.30
829;BME280;396;52.558;13.188;2023-03-04T13:21:16;101091.09;;;7.00;65.29
829;BME280;396;52.558;13.188;2023-03-04T13:23:46;101079.72;;;6.88;65.11
829;BME280;396;52.558;13.188;2023-03-04T13:26:18;101079.75;;;6.93;65.06
829;BME280;396;52.558;13.188;2023-03-04T13:28:51;101083.81;;;7.05;64.19
829;BME280;396;52.558;13.188;2023-03-04T13:31:24;101086.81;;;7.09;64.18
829;BME280;396;52.558;13.188;2023-03-04T13:33:59;101084.31;;;6.92;62.98
829;BME280;396;52.558;13.188;2023-03-04T13:39:31;101077.06;;;7.03;62.93
829;BME280;396;52.558;13.188;2023-03-04T13:41:58;101073.81;;;6.91;63.85
829;BME280;396;52.558;13.188;2023-03-04T13:44:58;101084.03;;;6.94;63.28
829;BME280;396;52.558;13.188;2023-03-04T13:47:32;101083.53;;;7.02;62.77